Nossa — CUIC7 — position and weather

sailwx.info

Track history (hours):
 
Tides and Currents Weather Stations Pressure Air Temp Water Temp Dewpoint Dewpoint Depression Visibility Wind Speed Wind Dir Waves Ship Positions

Nossa

Last reported at 2017-Oct-30 00:36 UTC. Time now 2017-Nov-18 04:29 UTC.
Position N 40°40' W 015°39'.
Warning: this ship's position is 19 days out of date.

Length 26 m.

Type: Fishing. MMSI: 263427750.

Date/timePositionNaut miles runAvg speedWind from/ knotsBaromVisibWave heightAir tempDewpointWater temp
2017-Oct-30 00:36N 40°40' W 015°39'1 7.6
2017-Oct-30 00:29N 40°40' W 015°38'4 7.8
2017-Oct-30 00:01N 40°40' W 015°33'7 8.0
2017-Oct-29 23:12N 40°40' W 015°24'2 8.2
2017-Oct-29 22:58N 40°40' W 015°22'4 8.2
2017-Oct-29 22:30N 40°41' W 015°17'  
2017-Oct-23 09:01N 40°19' W 009°16'1 7.7
2017-Oct-23 08:52N 40°18' W 009°16'3 8.0
2017-Oct-23 08:26N 40°15' W 009°17'3 8.0
2017-Oct-23 08:00N 40°11' W 009°18'4 8.1
2017-Oct-23 07:30N 40°07' W 009°19'13 7.8
2017-Oct-23 05:50N 39°54' W 009°20'3 7.9
2017-Oct-23 05:30N 39°52' W 009°21'4 7.8
2017-Oct-23 05:00N 39°48' W 009°22'29 7.5
2017-Oct-23 01:06N 39°19' W 009°29'2 7.6
2017-Oct-23 00:52N 39°18' W 009°30'3 7.7
2017-Oct-23 00:29N 39°15' W 009°31'4 7.7
2017-Oct-23 00:00N 39°11' W 009°32'4 7.6
2017-Oct-22 23:30N 39°08' W 009°33'4 7.3
2017-Oct-22 23:01N 39°04' W 009°34'4 7.2
2017-Oct-22 22:31N 39°00' W 009°35'4 7.3
2017-Oct-22 22:00N 38°57' W 009°36'4 7.2
2017-Oct-22 21:30N 38°53' W 009°36'4 7.1
2017-Oct-22 21:01N 38°50' W 009°36'3 6.8
2017-Oct-22 20:30N 38°46' W 009°37'3 6.6
2017-Oct-22 20:01N 38°43' W 009°37'3 6.6
2017-Oct-22 19:30N 38°40' W 009°37'3 6.8
2017-Oct-22 19:00N 38°36' W 009°37'3 6.8
2017-Oct-22 18:30N 38°33' W 009°37'3 7.0
2017-Oct-22 18:00N 38°29' W 009°37'3 6.8
2017-Oct-22 17:30N 38°26' W 009°37'3 6.7
2017-Oct-22 17:00N 38°23' W 009°36'3 6.5
2017-Oct-22 16:30N 38°19' W 009°35'3 6.4
2017-Oct-22 16:00N 38°16' W 009°35'3 6.5
2017-Oct-22 15:30N 38°13' W 009°34'3 6.5
2017-Oct-22 15:00N 38°10' W 009°34'4 6.5
2017-Oct-22 14:27N 38°06' W 009°33'3 6.6
2017-Oct-22 14:00N 38°03' W 009°33'13 7.1
2017-Oct-22 12:06N 37°50' W 009°33'5 0.4
2017-Oct-21 22:16N 37°48' W 009°26'2 5.3
2017-Oct-21 21:58N 37°50' W 009°26'2 4.2
2017-Oct-21 21:27N 37°52' W 009°27'3 6.0
2017-Oct-21 21:00N 37°49' W 009°27'6 6.0
2017-Oct-21 20:05N 37°44' W 009°28'0 6.3
2017-Oct-21 20:00N 37°43' W 009°28'3 6.4
2017-Oct-21 19:30N 37°40' W 009°27'3 1.0
2017-Oct-21 16:45N 37°41' W 009°24'2 7.8
2017-Oct-21 16:27N 37°43' W 009°24'5 3.1
2017-Oct-21 14:50N 37°44' W 009°30'1 3.0
2017-Oct-21 14:27N 37°44' W 009°29'9 0.4
2017-Oct-20 15:52N 37°52' W 009°25'2 4.2
2017-Oct-20 15:30N 37°50' W 009°24'4 8.2
2017-Oct-20 15:00N 37°46' W 009°24'5 5.3
2017-Oct-20 13:59N 37°41' W 009°23'6 1.5
2017-Oct-20 09:46N 37°36' W 009°18'1 1.8
2017-Oct-20 09:24N 37°36' W 009°18'2 4.8
2017-Oct-20 09:00N 37°38' W 009°17'3 6.1
2017-Oct-20 08:26N 37°42' W 009°18'3 6.0
2017-Oct-20 08:00N 37°44' W 009°20'3 5.1
2017-Oct-20 07:30N 37°47' W 009°20'3 5.7
2017-Oct-20 07:00N 37°49' W 009°19'2 3.0
2017-Oct-20 06:31N 37°51' W 009°18'3 5.1
2017-Oct-20 06:00N 37°50' W 009°15'0 0.5
2017-Oct-20 05:30N 37°50' W 009°15'0 0.5
2017-Oct-20 05:00N 37°51' W 009°16'0 0.6
2017-Oct-20 04:30N 37°51' W 009°16'0 0.6
2017-Oct-20 04:00N 37°51' W 009°16'0 0.3
2017-Oct-20 03:30N 37°51' W 009°17'0 0.4
2017-Oct-20 03:00N 37°51' W 009°17'0 0.5
2017-Oct-20 02:30N 37°51' W 009°17'0 0.5
2017-Oct-20 02:00N 37°51' W 009°17'0 0.5
2017-Oct-20 01:30N 37°52' W 009°17'0 0.7
2017-Oct-20 01:00N 37°52' W 009°17'  
Track history (hours):
 
Tides and Currents Weather Stations Pressure Air Temp Water Temp Dewpoint Dewpoint Depression Visibility Wind Speed Wind Dir Waves Ship Positions

Nossa

Last reported at 2017-Oct-30 00:36 UTC. Time now 2017-Nov-18 04:29 UTC.
Position N 40°40' W 015°39'.
Warning: this ship's position is 19 days out of date.

Length 26 m.

Type: Fishing. MMSI: 263427750.

Date/timePositionNaut miles runAvg speedWind from/ knotsBaromVisibWave heightAir tempDewpointWater temp
2017-Oct-30 00:36N 40°40' W 015°39'1 7.6
2017-Oct-30 00:29N 40°40' W 015°38'4 7.8
2017-Oct-30 00:01N 40°40' W 015°33'7 8.0
2017-Oct-29 23:12N 40°40' W 015°24'2 8.2
2017-Oct-29 22:58N 40°40' W 015°22'4 8.2
2017-Oct-29 22:30N 40°41' W 015°17'  
2017-Oct-23 09:01N 40°19' W 009°16'1 7.7
2017-Oct-23 08:52N 40°18' W 009°16'3 8.0
2017-Oct-23 08:26N 40°15' W 009°17'3 8.0
2017-Oct-23 08:00N 40°11' W 009°18'4 8.1
2017-Oct-23 07:30N 40°07' W 009°19'13 7.8
2017-Oct-23 05:50N 39°54' W 009°20'3 7.9
2017-Oct-23 05:30N 39°52' W 009°21'4 7.8
2017-Oct-23 05:00N 39°48' W 009°22'29 7.5
2017-Oct-23 01:06N 39°19' W 009°29'2 7.6
2017-Oct-23 00:52N 39°18' W 009°30'3 7.7
2017-Oct-23 00:29N 39°15' W 009°31'4 7.7
2017-Oct-23 00:00N 39°11' W 009°32'4 7.6
2017-Oct-22 23:30N 39°08' W 009°33'4 7.3
2017-Oct-22 23:01N 39°04' W 009°34'4 7.2
2017-Oct-22 22:31N 39°00' W 009°35'4 7.3
2017-Oct-22 22:00N 38°57' W 009°36'4 7.2
2017-Oct-22 21:30N 38°53' W 009°36'4 7.1
2017-Oct-22 21:01N 38°50' W 009°36'3 6.8
2017-Oct-22 20:30N 38°46' W 009°37'3 6.6
2017-Oct-22 20:01N 38°43' W 009°37'3 6.6
2017-Oct-22 19:30N 38°40' W 009°37'3 6.8
2017-Oct-22 19:00N 38°36' W 009°37'3 6.8
2017-Oct-22 18:30N 38°33' W 009°37'3 7.0
2017-Oct-22 18:00N 38°29' W 009°37'3 6.8
2017-Oct-22 17:30N 38°26' W 009°37'3 6.7
2017-Oct-22 17:00N 38°23' W 009°36'3 6.5
2017-Oct-22 16:30N 38°19' W 009°35'3 6.4
2017-Oct-22 16:00N 38°16' W 009°35'3 6.5
2017-Oct-22 15:30N 38°13' W 009°34'3 6.5
2017-Oct-22 15:00N 38°10' W 009°34'4 6.5
2017-Oct-22 14:27N 38°06' W 009°33'3 6.6
2017-Oct-22 14:00N 38°03' W 009°33'13 7.1
2017-Oct-22 12:06N 37°50' W 009°33'5 0.4
2017-Oct-21 22:16N 37°48' W 009°26'2 5.3
2017-Oct-21 21:58N 37°50' W 009°26'2 4.2
2017-Oct-21 21:27N 37°52' W 009°27'3 6.0
2017-Oct-21 21:00N 37°49' W 009°27'6 6.0
2017-Oct-21 20:05N 37°44' W 009°28'0 6.3
2017-Oct-21 20:00N 37°43' W 009°28'3 6.4
2017-Oct-21 19:30N 37°40' W 009°27'3 1.0
2017-Oct-21 16:45N 37°41' W 009°24'2 7.8
2017-Oct-21 16:27N 37°43' W 009°24'5 3.1
2017-Oct-21 14:50N 37°44' W 009°30'1 3.0
2017-Oct-21 14:27N 37°44' W 009°29'9 0.4
2017-Oct-20 15:52N 37°52' W 009°25'2 4.2
2017-Oct-20 15:30N 37°50' W 009°24'4 8.2
2017-Oct-20 15:00N 37°46' W 009°24'5 5.3
2017-Oct-20 13:59N 37°41' W 009°23'6 1.5
2017-Oct-20 09:46N 37°36' W 009°18'1 1.8
2017-Oct-20 09:24N 37°36' W 009°18'2 4.8
2017-Oct-20 09:00N 37°38' W 009°17'3 6.1
2017-Oct-20 08:26N 37°42' W 009°18'3 6.0
2017-Oct-20 08:00N 37°44' W 009°20'3 5.1
2017-Oct-20 07:30N 37°47' W 009°20'3 5.7
2017-Oct-20 07:00N 37°49' W 009°19'2 3.0
2017-Oct-20 06:31N 37°51' W 009°18'3 5.1
2017-Oct-20 06:00N 37°50' W 009°15'0 0.5
2017-Oct-20 05:30N 37°50' W 009°15'0 0.5
2017-Oct-20 05:00N 37°51' W 009°16'0 0.6
2017-Oct-20 04:30N 37°51' W 009°16'0 0.6
2017-Oct-20 04:00N 37°51' W 009°16'0 0.3
2017-Oct-20 03:30N 37°51' W 009°17'0 0.4
2017-Oct-20 03:00N 37°51' W 009°17'0 0.5
2017-Oct-20 02:30N 37°51' W 009°17'0 0.5
2017-Oct-20 02:00N 37°51' W 009°17'0 0.5
2017-Oct-20 01:30N 37°52' W 009°17'0 0.7
2017-Oct-20 01:00N 37°52' W 009°17'  

Dump ship's entire track history